Flight Track Log - Related Links

Times and Time Zones

All times are in EDT time to prevent confusion due to time zone crossing. See the HL-7733 flight status page for this flight to view local times or setup timezone preferences in your user account.

Time Position Orientation Groundspeed Altitude Reporting Facility
EDT Latitude Longitude Course Direction KTS MPH feet Rate Location/Type
Mon 01:09:32 AM 35.7330 140.3990 152° Southeast 154 177 3,000  Level FlightAware ADS-B
Mon 01:10:17 AM 35.7000 140.4220 150° Southeast 188 216 3,900 1,461 Climbing FlightAware ADS-B
Mon 01:11:27 AM 35.6360 140.4680 150° Southeast 262 302 5,800 1,867 Climbing FlightAware ADS-B
Mon 01:11:47 AM 35.6140 140.4840 149° Southeast 278 320 6,700 2,600 Climbing FlightAware ADS-B
Mon 01:11:57 AM 35.6020 140.4890 161° South 270 311 7,100 2,800 Climbing FlightAware ADS-B
Mon 01:12:02 AM 35.5950 140.4900 173° South 278 320 7,400 2,800 Climbing FlightAware ADS-B
Mon 01:12:27 AM 35.5660 140.4790 197° South 268 308 8,500 2,550 Climbing FlightAware ADS-B
Mon 01:12:42 AM 35.5560 140.4650 229° Southwest 269 310 9,100 3,200 Climbing FlightAware ADS-B
Mon 01:12:57 AM 35.5510 140.4380 257° West 271 312 10,100 2,700 Climbing FlightAware ADS-B
Mon 01:13:22 AM 35.5610 140.4010 288° West 290 334 10,900 1,950 Climbing FlightAware ADS-B
Mon 01:13:37 AM 35.5770 140.3830 318° Northwest 317 365 11,400 3,273 Climbing FlightAware ADS-B
Mon 01:14:17 AM 35.6310 140.3510 334° Northwest 332 382 13,900 3,671 Climbing FlightAware ADS-B
Mon 01:15:02 AM 35.6960 140.3140 335° Northwest 342 394 16,600 3,459 Climbing FlightAware ADS-B
Mon 01:15:42 AM 35.7520 140.2760 331° Northwest 344 396 18,800 3,164 Climbing FlightAware ADS-B
Mon 01:15:57 AM 35.7660 140.2540 308° West 339 390 19,500 3,000 Climbing FlightAware ADS-B
Mon 01:16:12 AM 35.7740 140.2260 289° West 336 387 20,300 3,055 Climbing FlightAware ADS-B
Mon 01:16:52 AM 35.7770 140.1500 273° West 341 392 22,300 2,850 Climbing FlightAware ADS-B
Mon 01:17:32 AM 35.7770 140.0720 270° West 346 398 24,100 2,682 Climbing FlightAware ADS-B
Mon 01:18:17 AM 35.7810 139.9850 273° West 350 403 26,100 2,541 Climbing FlightAware ADS-B
Mon 01:18:57 AM 35.7850 139.9020 273° West 360 414 27,700 2,118 Climbing FlightAware ADS-B
Mon 01:19:42 AM 35.7890 139.8090 273° West 372 428 29,100 1,835 Climbing FlightAware ADS-B
Mon 01:20:22 AM 35.7930 139.7240 273° West 383 441 30,300 1,271 Climbing FlightAware ADS-B
Mon 01:21:07 AM 35.7970 139.6210 273° West 413 475 30,900 1,129 Climbing FlightAware ADS-B
Mon 01:21:47 AM 35.8010 139.5270 273° West 422 486 31,900 1,575 Climbing FlightAware ADS-B
Mon 01:22:27 AM 35.8040 139.4290 272° West 429 494 33,000 2,047 Climbing FlightAware ADS-B
Mon 01:23:12 AM 35.8090 139.3210 273° West 419 482 34,800 1,906 Climbing FlightAware ADS-B
Mon 01:23:52 AM 35.8120 139.2270 272° West 423 487 35,700 900 Climbing FlightAware ADS-B
Mon 01:24:32 AM 35.8160 139.1280 273° West 431 496 36,000 212 Climbing FlightAware ADS-B
Mon 01:25:17 AM 35.8200 139.0180 273° West 430 495 36,000  Level FlightAware ADS-B
Mon 01:25:57 AM 35.8230 138.9230 272° West 428 493 36,000  Level FlightAware ADS-B
Mon 01:26:42 AM 35.8270 138.8100 273° West 429 494 36,000  Level FlightAware ADS-B
Mon 01:27:22 AM 35.8300 138.7130 272° West 425 489 36,000  Level FlightAware ADS-B
Mon 01:28:02 AM 35.8330 138.6180 272° West 424 488 36,000  Level FlightAware ADS-B
Mon 01:28:47 AM 35.8360 138.5080 272° West 420 483 36,000  Level FlightAware ADS-B
Mon 01:29:27 AM 35.8390 138.4170 272° West 418 481 36,000  Level FlightAware ADS-B
Mon 01:30:12 AM 35.8420 138.3060 272° West 420 483 36,000  Level FlightAware ADS-B
Mon 01:30:52 AM 35.8450 138.2100 272° West 419 482 36,000  Level FlightAware ADS-B
Mon 01:31:32 AM 35.8480 138.1150 272° West 417 480 36,000  Level FlightAware ADS-B
Mon 01:32:17 AM 35.8510 138.0050 272° West 415 478 36,000  Level FlightAware ADS-B
Mon 01:32:57 AM 35.8530 137.9090 272° West 417 480 36,000  Level FlightAware ADS-B
Mon 01:33:42 AM 35.8560 137.8010 272° West 422 486 36,000  Level FlightAware ADS-B
Mon 01:34:22 AM 35.8580 137.7090 272° West 422 486 36,000  Level FlightAware ADS-B
Mon 01:35:02 AM 35.8600 137.6120 271° West 414 476 36,000  Level FlightAware ADS-B
Mon 01:35:47 AM 35.8630 137.5060 272° West 413 475 36,000  Level FlightAware ADS-B
Mon 01:36:27 AM 35.8650 137.4140 272° West 420 483 36,000  Level FlightAware ADS-B
Mon 01:37:07 AM 35.8670 137.3150 271° West 418 481 36,000  Level FlightAware ADS-B
Mon 01:37:52 AM 35.8690 137.2090 271° West 418 481 36,000  Level FlightAware ADS-B
Mon 01:38:32 AM 35.8710 137.1140 272° West 416 479 36,000  Level FlightAware ADS-B
Mon 01:39:17 AM 35.8730 137.0130 271° West 412 474 36,000  Level FlightAware ADS-B
Mon 01:39:57 AM 35.8750 136.9140 271° West 415 478 36,000  Level FlightAware ADS-B
Mon 01:40:37 AM 35.8760 136.8260 271° West 415 478 36,000  Level FlightAware ADS-B
Mon 01:41:22 AM 35.8780 136.7160 271° West 419 482 36,000  Level FlightAware ADS-B
Mon 01:42:02 AM 35.8800 136.6180 271° West 422 486 36,000  Level FlightAware ADS-B
Mon 01:42:47 AM 35.8810 136.5100 271° West 421 484 36,000  Level FlightAware ADS-B
Mon 01:43:27 AM 35.8830 136.4160 272° West 421 484 36,000  Level FlightAware ADS-B
Mon 01:44:07 AM 35.8840 136.3180 271° West 424 488 36,000  Level FlightAware ADS-B
Mon 01:44:52 AM 35.8850 136.2120 271° West 426 490 36,000  Level FlightAware ADS-B
Mon 01:45:32 AM 35.8860 136.1170 271° West 424 488 36,000  Level FlightAware ADS-B
Mon 01:46:17 AM 35.8870 136.0070 271° West 419 482 36,000  Level FlightAware ADS-B
Mon 01:46:57 AM 35.8880 135.9110 271° West 416 479 36,000  Level FlightAware ADS-B
Mon 01:47:37 AM 35.8890 135.8150 271° West 412 474 36,000  Level FlightAware ADS-B
Mon 01:48:22 AM 35.8900 135.7140 271° West 407 468 36,000  Level FlightAware ADS-B
Mon 01:49:02 AM 35.8900 135.6200 270° West 403 464 36,000  Level FlightAware ADS-B
Mon 01:49:42 AM 35.8910 135.5260 271° West 402 463 36,000  Level FlightAware ADS-B
Mon 01:50:27 AM 35.8920 135.4240 271° West 403 464 36,000  Level FlightAware ADS-B
Mon 01:51:07 AM 35.8920 135.3330 270° West 402 463 36,000  Level FlightAware ADS-B
Mon 01:51:52 AM 35.8930 135.2290 271° West 404 465 36,000  Level FlightAware ADS-B
Mon 01:52:32 AM 35.8930 135.1370 270° West 405 466 36,000  Level FlightAware ADS-B
Mon 01:53:17 AM 35.8930 135.0330 270° West 404 465 36,000  Level FlightAware ADS-B
Mon 01:53:57 AM 35.8930 134.9440 270° West 404 465 36,000  Level FlightAware ADS-B
Mon 01:55:32 AM 35.8930 134.7290 270° West 404 465 36,000  Level FlightAware ADS-B
Mon 01:56:17 AM 35.8930 134.6200 270° West 404 465 36,000  Level FlightAware ADS-B
Mon 01:56:57 AM 35.8930 134.5250 270° West 403 464 36,000  Level FlightAware ADS-B
Mon 01:57:32 AM 35.8930 134.4490 270° West 401 461 36,000  Level FlightAware ADS-B
Mon 01:58:27 AM 35.8920 134.3340 269° West 399 459 36,000  Level FlightAware ADS-B
Mon 01:59:07 AM 35.8920 134.2350 270° West 397 457 36,000  Level FlightAware ADS-B
Mon 01:59:47 AM 35.8920 134.1520 270° West 395 455 36,000  Level FlightAware ADS-B
Mon 02:00:32 AM 35.8910 134.0410 269° West 393 452 36,000  Level FlightAware ADS-B
Mon 02:01:12 AM 35.8900 133.9530 269° West 392 451 36,000  Level FlightAware ADS-B
Mon 02:01:57 AM 35.8900 133.8510 270° West 391 450 36,000  Level FlightAware ADS-B
Mon 02:02:37 AM 35.8890 133.7630 269° West 391 450 36,000  Level FlightAware ADS-B
Mon 02:03:17 AM 35.8880 133.6730 269° West 390 449 36,000  Level FlightAware ADS-B
Mon 02:04:02 AM 35.8870 133.5760 269° West 391 450 36,000  Level FlightAware ADS-B
Mon 02:04:42 AM 35.8860 133.4990 269° West 390 449 36,000  Level FlightAware ADS-B
Mon 02:05:27 AM 35.8850 133.3880 269° West 390 449 36,000  Level FlightAware ADS-B
Mon 02:06:07 AM 35.8840 133.2990 269° West 391 450 36,000  Level FlightAware ADS-B
Mon 02:06:52 AM 35.8830 133.2020 269° West 391 450 36,000  Level FlightAware ADS-B
Mon 02:07:32 AM 35.8810 133.1160 268° West 392 451 36,000  Level FlightAware ADS-B
Mon 02:08:12 AM 35.8800 133.0220 269° West 391 450 36,000  Level FlightAware ADS-B
Mon 02:08:57 AM 35.8790 132.9190 269° West 391 450 36,000  Level FlightAware ADS-B
Mon 02:09:32 AM 35.8770 132.8420 268° West 390 449 36,000  Level FlightAware ADS-B
Mon 02:10:17 AM 35.8760 132.7470 269° West 390 449 36,000  Level FlightAware ADS-B
Mon 02:11:02 AM 35.8740 132.6480 269° West 391 450 36,000  Level FlightAware ADS-B
Mon 02:11:42 AM 35.8720 132.5540 269° West 392 451 36,000  Level FlightAware ADS-B
Mon 02:12:27 AM 35.8700 132.4550 269° West 392 451 36,000  Level FlightAware ADS-B
Mon 02:13:07 AM 35.8680 132.3650 268° West 392 451 36,000  Level FlightAware ADS-B
Mon 02:13:47 AM 35.8670 132.2820 269° West 392 451 36,000  Level FlightAware ADS-B
Mon 02:14:32 AM 35.8650 132.1790 269° West 393 452 36,000  Level FlightAware ADS-B
Mon 02:15:07 AM 35.8630 132.0940 268° West 393 452 36,000  Level FlightAware ADS-B
Mon 02:15:57 AM 35.8600 131.9880 268° West 393 452 36,000  Level FlightAware ADS-B
Mon 02:16:37 AM 35.8580 131.8940 269° West 392 451 36,000  Level FlightAware ADS-B
Mon 02:17:22 AM 35.8560 131.8020 268° West 393 452 36,000  Level FlightAware ADS-B
Mon 02:18:02 AM 35.8530 131.7040 268° West 393 452 36,000  Level FlightAware ADS-B
Mon 02:18:42 AM 35.8510 131.6200 268° West 392 451 36,000  Level FlightAware ADS-B
Mon 02:19:27 AM 35.8480 131.5170 268° West 391 450 36,000  Level FlightAware ADS-B
Mon 02:20:07 AM 35.8460 131.4260 268° West 390 449 36,000  Level FlightAware ADS-B
Mon 02:20:47 AM 35.8430 131.3400 268° West 388 447 36,000  Level FlightAware ADS-B
Mon 02:21:27 AM 35.8410 131.2510 268° West 387 445 36,000  Level FlightAware ADS-B
Mon 02:22:12 AM 35.8380 131.1520 268° West 386 444 36,000  Level FlightAware ADS-B
Mon 02:22:57 AM 35.8340 131.0620 267° West 386 444 36,000  Level FlightAware ADS-B
Mon 02:23:37 AM 35.8320 130.9670 269° West 36,000  Level FlightAware ADS-B
Mon 02:24:17 AM 35.8290 130.8800 268° West 387 445 36,000  Level FlightAware ADS-B
Mon 02:25:02 AM 35.8260 130.7880 268° West 386 444 36,000  Level FlightAware ADS-B
Mon 02:25:37 AM 35.8270 130.7020 271° West 381 438 36,000  Level FlightAware ADS-B
Mon 02:26:17 AM 35.8370 130.6180 278° West 378 435 36,000  Level FlightAware ADS-B
Mon 02:27:07 AM 35.8500 130.5200 279° West 378 435 36,000  Level FlightAware ADS-B
Mon 02:27:42 AM 35.8610 130.4350 279° West 378 435 36,000  Level FlightAware ADS-B
Mon 02:28:32 AM 35.8730 130.3350 278° West 377 434 36,000  Level FlightAware ADS-B
Mon 02:29:12 AM 35.8840 130.2450 279° West 376 433 36,000  Level FlightAware ADS-B
Mon 02:29:57 AM 35.8950 130.1570 279° West 376 433 36,000  Level FlightAware ADS-B
Mon 02:31:07 AM 35.9200 130.0070 282° West 373 429 36,000  Level FlightAware ADS-B
Mon 02:31:42 AM 35.9350 129.9430 286° West 373 429 36,000  Level FlightAware ADS-B
Mon 02:32:42 AM 35.9800 129.8320 297° West 374 430 36,000  Level FlightAware ADS-B
Mon 02:33:22 AM 36.0030 129.7650 293° West 374 430 36,000  Level FlightAware ADS-B
Mon 02:34:02 AM 36.0260 129.6980 293° West 374 430 36,000 -1,200 Level FlightAware ADS-B
Mon 02:34:42 AM 36.0700 129.5900 297° West 383 441 34,400 -1,600 Descending FlightAware ADS-B
Mon 02:35:32 AM 36.1070 129.4860 294° West 405 466 33,600 -514 Descending FlightAware ADS-B
Mon 02:36:27 AM 36.1480 129.3730 294° West 403 464 33,500 -379 Descending FlightAware ADS-B
Mon 02:37:07 AM 36.1850 129.2950 300° West 403 464 33,000 -375 Descending FlightAware ADS-B
Mon 02:37:47 AM 36.2260 129.2160 303° West 395 455 33,000  Level FlightAware ADS-B
Mon 02:38:32 AM 36.2630 129.1390 301° West 395 455 33,000  Level FlightAware ADS-B
Mon 02:39:17 AM 36.3170 129.0410 304° West 399 459 33,000  Level FlightAware ADS-B
Mon 02:39:52 AM 36.3510 128.9740 302° West 399 459 33,000  Level FlightAware ADS-B
Mon 02:40:32 AM 36.3840 128.9080 302° West 399 459 33,000  Level FlightAware ADS-B
Mon 02:41:22 AM 36.4260 128.8250 302° West 399 459 33,000  Level FlightAware ADS-B
Mon 02:42:02 AM 36.4590 128.7590 302° West 399 459 33,000  Level FlightAware ADS-B
Mon 02:42:42 AM 36.4930 128.6930 303° West 399 459 33,000  Level FlightAware ADS-B
Mon 02:43:22 AM 36.5260 128.6270 302° West 399 459 33,000  Level FlightAware ADS-B
Mon 02:44:12 AM 36.5670 128.5440 302° West 399 459 33,000  Level FlightAware ADS-B
Mon 02:44:52 AM 36.6010 128.4770 302° West 399 459 33,000  Level FlightAware ADS-B
Mon 02:45:32 AM 36.6340 128.4110 302° West 399 459 33,000  Level FlightAware ADS-B
Mon 02:46:12 AM 36.6670 128.3450 302° West 399 459 33,000  Level FlightAware ADS-B
Mon 02:46:52 AM 36.7000 128.2780 302° West 399 459 33,000  Level FlightAware ADS-B
Mon 02:47:32 AM 36.7340 128.2120 303° West 399 459 33,000  Level FlightAware ADS-B
Mon 02:48:22 AM 36.7750 128.1290 302° West 399 459 33,000  Level FlightAware ADS-B
Mon 02:49:02 AM 36.8080 128.0620 302° West 399 459 33,000 -5,625 Level FlightAware ADS-B
Mon 02:50:17 AM 36.9760 127.7280 302° West 18,900 -7,500 Descending FlightAware ADS-B
Mon 02:51:02 AM 37.0170 127.6460 302° West 344 396 18,000 -632 Descending FlightAware ADS-B
Mon 02:51:52 AM 37.0590 127.5620 302° West 337 388 17,900 -462 Descending FlightAware ADS-B
Mon 02:52:07 AM 37.0650 127.5300 283° West 340 391 17,500 -1,855 Descending FlightAware ADS-B
Mon 02:52:47 AM 37.0740 127.4520 278° West 336 387 16,200 -2,018 Descending FlightAware ADS-B
Mon 02:53:57 AM 37.0890 127.3190 278° West 335 386 13,800 -1,843 Descending FlightAware ADS-B
Mon 02:55:07 AM 37.1030 127.1870 278° West 300 345 11,900 -1,714 Descending FlightAware ADS-B
Mon 02:56:17 AM 37.1160 127.0740 278° West 275 316 9,800 -1,725 Descending FlightAware ADS-B
Mon 02:56:27 AM 37.1180 127.0610 281° West 274 315 9,600 -267 Descending FlightAware ADS-B
Mon 02:57:02 AM 37.1230 127.0130 277° West 274 315 9,600 -1,100 Level FlightAware ADS-B
Mon 02:57:27 AM 37.1310 126.9670 282° West 257 296 8,500 -2,057 Descending FlightAware ADS-B
Mon 02:57:37 AM 37.1350 126.9530 290° West 251 289 8,400 -257 Descending FlightAware ADS-B
Mon 02:58:37 AM 37.1630 126.8840 297° West 236 272 8,200 -171 Descending FlightAware ADS-B
Mon 02:58:47 AM 37.1680 126.8740 302° West 236 272 8,200  Level FlightAware ADS-B
Mon 02:59:17 AM 37.1810 126.8440 299° West 236 272 8,200 -1,175 Level FlightAware ADS-B
Mon 02:59:42 AM 37.1920 126.8190 299° West 6,900 -1,343 Descending FlightAware ADS-B
Mon 03:02:00 AM 37.3374 126.6262 314° West  Level Estimated
Mon 03:02:37 AM 37.2770 126.6280 314° West 3,500  Level FlightAware ADS-B
Mon 03:02:47 AM 37.2820 126.6200 308° West 170 196 3,500  Level FlightAware ADS-B
Mon 03:03:37 AM 37.3090 126.5960 325° Northwest 160 184 3,500  Level FlightAware ADS-B
Mon 03:06:00 AM 37.4691 126.4505 324° Northwest  Level Estimated
Mon 03:07:00 AM 37.4691 126.4505 335° Northwest  Level Estimated
Mon 03:08:00 AM 37.4691 126.4505 335° Northwest  Level Estimated
Mon 03:09:00 AM 37.4691 126.4505 335° Northwest  Level Estimated
Mon 03:10:00 AM 37.4691 126.4505 335° Northwest  Level Estimated
Mon 03:11:00 AM 37.4691 126.4505 335° Northwest  Level Estimated
Mon 03:12:00 AM 37.4691 126.4505 335° Northwest  Level Estimated
Mon 03:13:00 AM 37.4691 126.4505 335° Northwest  Level Estimated
Mon 03:14:00 AM 37.4691 126.4505 335° Northwest  Level Estimated

Login

Don't have an account? Register now (free) for customized features, flight alerts, and more!